• Join FlightAware (Why Join?)
  • Login
  • US Flag 
01:51PM EST


 

Airport Tracker/Info


-or-


 

Live Flight TrackerFlight Track Log ✈ N560TA ✈ 28-Apr-2013 ✈ KAPF - KISM

Flight Track Log - Related Links

Times and Time Zones

All times are in EDT time to prevent confusion due to time zone crossing. See the N560TA flight status page for this flight to view local times or setup timezone preferences in your user account.

Time Position Orientation Groundspeed Altitude Reporting Facility
EDT Latitude Longitude Course Direction KTS MPH feet Rate Location/Type
08:06PM 26.2222 -81.6803 49° Northeast 202 232 5,900  Level Miami Center
08:07PM 26.2839 -81.6503 24° Northeast 211 243 9,300 2,850 Climbing Miami Center
08:08PM 26.3650 -81.6583 355° North 244 281 11,600 2,550 Climbing Miami Center
08:09PM 26.4542 -81.6714 353° North 278 320 14,400 2,150 Climbing Miami Center
08:10PM 26.5458 -81.6842 353° North 311 358 15,900 750 Climbing Miami Center
08:11PM 26.6299 -81.7500 North  Level FlightAware Approximate
08:11PM 26.6475 -81.7000 352° North 343 395 15,900  Level Miami Center
08:12PM 26.7497 -81.7019 359° North 361 415 15,900  Level Miami Center
08:13PM 26.8539 -81.7064 358° North 366 421 15,900  Level Miami Center
08:14PM 26.9561 -81.7106 358° North 366 421 15,900  Level Miami Center
08:15PM 27.0606 -81.7103 360° North 366 421 15,900  Level Miami Center
08:16PM 27.1644 -81.7192 356° North 366 421 15,900  Level Miami Center
08:17PM 27.2689 -81.7211 359° North 366 421 15,900 -250 Level Miami Center
08:18PM 27.3731 -81.7281 357° North 366 421 15,400 -950 Descending Miami Center
08:19PM 27.4753 -81.7300 359° North 366 421 14,000 -1,450 Descending Miami Center
08:20PM 27.5753 -81.7342 358° North 361 415 12,500 -1,400 Descending Miami Center
08:21PM 27.6731 -81.7383 358° North 361 415 11,200 -1,450 Descending Miami Center
08:22PM 27.7753 -81.7406 359° North 355 409 9,600 -1,016 Descending Miami Center
08:25PM 27.9500 -81.7500 357° North 295 339 8,000 -698 Descending Orlando TRACON
08:26PM 28.0333 -81.7500 360° North 295 339 7,400 -1,000 Descending Orlando TRACON
08:27PM 28.1000 -81.7000 33° Northeast 286 329 6,000 -1,550 Descending Orlando TRACON
08:28PM 28.1667 -81.6500 33° Northeast 273 314 4,300 -1,850 Descending Orlando TRACON
08:29PM 28.2333 -81.6000 33° Northeast 268 308 2,300 -1,350 Descending Orlando TRACON
08:30PM 28.2833 -81.5667 30° Northeast 228 262 1,600 -350 Descending Orlando TRACON
08:31PM 28.3167 -81.5167 53° Northeast 177 204 1,600 -397 Level Orlando TRACON
08:32PM 28.3167 -81.4667 90° East 113 130 800 -626 Descending Orlando TRACON
08:32PM 28.3167 -81.4500 90° East 99 114 400 -444 Descending Orlando TRACON
08:34PM 28.2898 -81.4371 North  Level Estimated
08:41PM 28.2898 -81.4371 180° South  Level Estimated
08:42PM 28.2898 -81.4371 180° South  Level Estimated
08:43PM 28.2898 -81.4371 180° South  Level Estimated